sensor_id;sensor_type;location;lat;lon;timestamp;temperature;humidity
16736;DHT22;17990;49.548;9.730;2024-03-29T00:01:31;3.90;99.90
16736;DHT22;17990;49.548;9.730;2024-03-29T00:03:57;3.80;99.90
16736;DHT22;17990;49.548;9.730;2024-03-29T00:06:23;3.70;99.90
16736;DHT22;17990;49.548;9.730;2024-03-29T00:08:49;3.70;99.90
16736;DHT22;17990;49.548;9.730;2024-03-29T00:11:16;3.60;99.90
16736;DHT22;17990;49.548;9.730;2024-03-29T00:13:42;3.60;99.90
16736;DHT22;17990;49.548;9.730;2024-03-29T00:16:08;3.60;99.90
16736;DHT22;17990;49.548;9.730;2024-03-29T00:18:34;3.60;99.90
16736;DHT22;17990;49.548;9.730;2024-03-29T00:21:00;3.50;99.90
16736;DHT22;17990;49.548;9.730;2024-03-29T00:23:26;3.50;99.90
16736;DHT22;17990;49.548;9.730;2024-03-29T00:25:52;3.50;99.90
16736;DHT22;17990;49.548;9.730;2024-03-29T00:28:19;3.50;99.90
16736;DHT22;17990;49.548;9.730;2024-03-29T00:30:45;3.50;99.90
16736;DHT22;17990;49.548;9.730;2024-03-29T00:33:11;3.50;99.90
16736;DHT22;17990;49.548;9.730;2024-03-29T00:35:37;3.60;99.90
16736;DHT22;17990;49.548;9.730;2024-03-29T00:38:03;3.60;99.90
16736;DHT22;17990;49.548;9.730;2024-03-29T00:40:29;3.60;99.90
16736;DHT22;17990;49.548;9.730;2024-03-29T00:42:55;3.60;99.90
16736;DHT22;17990;49.548;9.730;2024-03-29T00:45:22;3.70;99.90
16736;DHT22;17990;49.548;9.730;2024-03-29T00:47:48;3.80;99.90
16736;DHT22;17990;49.548;9.730;2024-03-29T00:50:14;3.80;99.90
16736;DHT22;17990;49.548;9.730;2024-03-29T00:52:40;3.80;99.90
16736;DHT22;17990;49.548;9.730;2024-03-29T00:55:06;3.90;99.90
16736;DHT22;17990;49.548;9.730;2024-03-29T00:57:33;3.90;99.90
16736;DHT22;17990;49.548;9.730;2024-03-29T00:59:59;4.00;99.90
16736;DHT22;17990;49.548;9.730;2024-03-29T01:02:26;4.00;99.90
16736;DHT22;17990;49.548;9.730;2024-03-29T01:04:52;4.10;99.90
16736;DHT22;17990;49.548;9.730;2024-03-29T01:07:18;4.10;99.90
16736;DHT22;17990;49.548;9.730;2024-03-29T01:09:44;4.10;99.90
16736;DHT22;17990;49.548;9.730;2024-03-29T01:12:10;4.10;99.90
16736;DHT22;17990;49.548;9.730;2024-03-29T01:14:36;4.20;99.90
16736;DHT22;17990;49.548;9.730;2024-03-29T01:17:02;4.20;99.90
16736;DHT22;17990;49.548;9.730;2024-03-29T01:19:30;4.20;99.90
16736;DHT22;17990;49.548;9.730;2024-03-29T01:21:56;4.30;99.90
16736;DHT22;17990;49.548;9.730;2024-03-29T01:24:22;4.30;99.90
16736;DHT22;17990;49.548;9.730;2024-03-29T01:26:48;4.30;99.90
16736;DHT22;17990;49.548;9.730;2024-03-29T01:29:14;4.30;99.90
16736;DHT22;17990;49.548;9.730;2024-03-29T01:31:40;4.30;99.90
16736;DHT22;17990;49.548;9.730;2024-03-29T01:34:06;4.40;99.90
16736;DHT22;17990;49.548;9.730;2024-03-29T01:36:33;4.50;99.90
16736;DHT22;17990;49.548;9.730;2024-03-29T01:38:59;4.60;99.90
16736;DHT22;17990;49.548;9.730;2024-03-29T01:41:25;4.60;99.90
16736;DHT22;17990;49.548;9.730;2024-03-29T01:43:51;4.60;99.90
16736;DHT22;17990;49.548;9.730;2024-03-29T01:46:19;4.60;99.90
16736;DHT22;17990;49.548;9.730;2024-03-29T01:48:48;4.60;99.90
16736;DHT22;17990;49.548;9.730;2024-03-29T01:51:15;4.60;99.90
16736;DHT22;17990;49.548;9.730;2024-03-29T01:53:44;4.60;99.90
16736;DHT22;17990;49.548;9.730;2024-03-29T01:56:11;4.70;99.90
16736;DHT22;17990;49.548;9.730;2024-03-29T01:58:39;4.80;99.90
16736;DHT22;17990;49.548;9.730;2024-03-29T02:01:07;4.80;99.90
16736;DHT22;17990;49.548;9.730;2024-03-29T02:03:34;4.80;99.90
16736;DHT22;17990;49.548;9.730;2024-03-29T02:06:01;4.90;99.90
16736;DHT22;17990;49.548;9.730;2024-03-29T02:08:29;4.90;99.90
16736;DHT22;17990;49.548;9.730;2024-03-29T02:10:57;5.00;99.90
16736;DHT22;17990;49.548;9.730;2024-03-29T02:13:24;5.00;99.90
16736;DHT22;17990;49.548;9.730;2024-03-29T02:15:51;5.00;99.90
16736;DHT22;17990;49.548;9.730;2024-03-29T02:18:18;5.00;99.90
16736;DHT22;17990;49.548;9.730;2024-03-29T02:20:45;5.00;99.90
16736;DHT22;17990;49.548;9.730;2024-03-29T02:23:16;4.90;99.90
16736;DHT22;17990;49.548;9.730;2024-03-29T02:25:46;4.90;99.90
16736;DHT22;17990;49.548;9.730;2024-03-29T02:28:13;4.90;99.90
16736;DHT22;17990;49.548;9.730;2024-03-29T02:30:40;5.00;99.90
16736;DHT22;17990;49.548;9.730;2024-03-29T02:33:07;5.10;99.90
16736;DHT22;17990;49.548;9.730;2024-03-29T02:35:33;5.20;99.90
16736;DHT22;17990;49.548;9.730;2024-03-29T02:38:00;5.20;99.90
16736;DHT22;17990;49.548;9.730;2024-03-29T02:40:27;5.30;99.90
16736;DHT22;17990;49.548;9.730;2024-03-29T02:42:54;5.30;99.90
16736;DHT22;17990;49.548;9.730;2024-03-29T02:45:21;5.40;99.90
16736;DHT22;17990;49.548;9.730;2024-03-29T02:47:48;5.50;99.90
16736;DHT22;17990;49.548;9.730;2024-03-29T02:50:15;5.50;99.90
16736;DHT22;17990;49.548;9.730;2024-03-29T02:52:42;5.50;99.90
16736;DHT22;17990;49.548;9.730;2024-03-29T02:55:08;5.50;99.90
16736;DHT22;17990;49.548;9.730;2024-03-29T02:57:36;5.50;99.90
16736;DHT22;17990;49.548;9.730;2024-03-29T03:00:04;5.60;99.90
16736;DHT22;17990;49.548;9.730;2024-03-29T03:02:31;5.60;99.90
16736;DHT22;17990;49.548;9.730;2024-03-29T03:04:57;5.60;99.90
16736;DHT22;17990;49.548;9.730;2024-03-29T03:07:26;5.70;99.90
16736;DHT22;17990;49.548;9.730;2024-03-29T03:10:10;5.80;99.90
16736;DHT22;17990;49.548;9.730;2024-03-29T03:12:54;5.80;99.90
16736;DHT22;17990;49.548;9.730;2024-03-29T03:15:22;5.90;99.90
16736;DHT22;17990;49.548;9.730;2024-03-29T03:17:49;5.90;99.90
16736;DHT22;17990;49.548;9.730;2024-03-29T03:20:16;5.90;99.90
16736;DHT22;17990;49.548;9.730;2024-03-29T03:22:42;5.90;99.90
16736;DHT22;17990;49.548;9.730;2024-03-29T03:25:09;6.00;99.90
16736;DHT22;17990;49.548;9.730;2024-03-29T03:27:35;6.00;99.90
16736;DHT22;17990;49.548;9.730;2024-03-29T03:30:02;6.10;99.90
16736;DHT22;17990;49.548;9.730;2024-03-29T03:32:29;6.00;99.90
16736;DHT22;17990;49.548;9.730;2024-03-29T03:34:56;6.00;99.90
16736;DHT22;17990;49.548;9.730;2024-03-29T03:37:22;6.00;99.90
16736;DHT22;17990;49.548;9.730;2024-03-29T03:39:49;6.00;99.90
16736;DHT22;17990;49.548;9.730;2024-03-29T03:42:14;6.00;99.90
16736;DHT22;17990;49.548;9.730;2024-03-29T03:44:41;6.10;99.90
16736;DHT22;17990;49.548;9.730;2024-03-29T03:47:07;6.10;99.90
16736;DHT22;17990;49.548;9.730;2024-03-29T03:49:35;6.00;99.90
16736;DHT22;17990;49.548;9.730;2024-03-29T03:52:01;6.00;99.90
16736;DHT22;17990;49.548;9.730;2024-03-29T03:54:28;5.90;99.90
16736;DHT22;17990;49.548;9.730;2024-03-29T03:56:54;5.90;99.90
16736;DHT22;17990;49.548;9.730;2024-03-29T03:59:21;6.00;99.90
16736;DHT22;17990;49.548;9.730;2024-03-29T04:01:47;6.10;99.90
16736;DHT22;17990;49.548;9.730;2024-03-29T04:04:16;6.10;99.90
16736;DHT22;17990;49.548;9.730;2024-03-29T04:06:44;6.10;99.90
16736;DHT22;17990;49.548;9.730;2024-03-29T04:09:14;6.10;99.90
16736;DHT22;17990;49.548;9.730;2024-03-29T04:11:41;6.10;99.90
16736;DHT22;17990;49.548;9.730;2024-03-29T04:14:08;6.10;99.90
16736;DHT22;17990;49.548;9.730;2024-03-29T04:16:34;6.20;99.90
16736;DHT22;17990;49.548;9.730;2024-03-29T04:19:01;6.30;99.90
16736;DHT22;17990;49.548;9.730;2024-03-29T04:21:27;6.20;99.90
16736;DHT22;17990;49.548;9.730;2024-03-29T04:23:55;6.30;99.90
16736;DHT22;17990;49.548;9.730;2024-03-29T04:26:22;6.30;99.90
16736;DHT22;17990;49.548;9.730;2024-03-29T04:28:49;6.50;99.90
16736;DHT22;17990;49.548;9.730;2024-03-29T04:31:15;6.80;99.90
16736;DHT22;17990;49.548;9.730;2024-03-29T04:33:41;6.90;99.90
16736;DHT22;17990;49.548;9.730;2024-03-29T04:36:08;6.80;99.90
16736;DHT22;17990;49.548;9.730;2024-03-29T04:38:35;6.80;99.90
16736;DHT22;17990;49.548;9.730;2024-03-29T04:41:03;6.90;99.90
16736;DHT22;17990;49.548;9.730;2024-03-29T04:43:30;7.10;99.90
16736;DHT22;17990;49.548;9.730;2024-03-29T04:46:03;7.10;99.90
16736;DHT22;17990;49.548;9.730;2024-03-29T04:48:30;7.30;99.90
16736;DHT22;17990;49.548;9.730;2024-03-29T04:50:58;7.40;99.90
16736;DHT22;17990;49.548;9.730;2024-03-29T04:53:24;7.60;99.90
16736;DHT22;17990;49.548;9.730;2024-03-29T04:55:55;7.60;99.90
16736;DHT22;17990;49.548;9.730;2024-03-29T04:58:23;7.70;99.90
16736;DHT22;17990;49.548;9.730;2024-03-29T05:00:51;7.80;99.90
16736;DHT22;17990;49.548;9.730;2024-03-29T05:03:18;7.90;99.90
16736;DHT22;17990;49.548;9.730;2024-03-29T05:05:46;7.90;99.90
16736;DHT22;17990;49.548;9.730;2024-03-29T05:08:13;7.90;99.90
16736;DHT22;17990;49.548;9.730;2024-03-29T05:10:40;7.80;99.90
16736;DHT22;17990;49.548;9.730;2024-03-29T05:13:07;7.80;99.90
16736;DHT22;17990;49.548;9.730;2024-03-29T05:15:35;7.70;99.90
16736;DHT22;17990;49.548;9.730;2024-03-29T05:18:02;7.70;99.90
16736;DHT22;17990;49.548;9.730;2024-03-29T05:20:30;7.70;99.90
16736;DHT22;17990;49.548;9.730;2024-03-29T05:22:57;7.70;99.90
16736;DHT22;17990;49.548;9.730;2024-03-29T05:25:25;7.70;99.90
16736;DHT22;17990;49.548;9.730;2024-03-29T05:27:52;7.70;99.90
16736;DHT22;17990;49.548;9.730;2024-03-29T05:30:19;7.80;99.90
16736;DHT22;17990;49.548;9.730;2024-03-29T05:32:47;7.80;99.90
16736;DHT22;17990;49.548;9.730;2024-03-29T05:35:14;7.90;99.90
16736;DHT22;17990;49.548;9.730;2024-03-29T05:37:42;7.90;99.90
16736;DHT22;17990;49.548;9.730;2024-03-29T05:40:14;7.90;99.90
16736;DHT22;17990;49.548;9.730;2024-03-29T05:42:41;8.00;99.90
16736;DHT22;17990;49.548;9.730;2024-03-29T05:45:22;8.00;99.90
16736;DHT22;17990;49.548;9.730;2024-03-29T05:47:53;8.10;99.90
16736;DHT22;17990;49.548;9.730;2024-03-29T05:50:20;8.00;99.90
16736;DHT22;17990;49.548;9.730;2024-03-29T05:52:48;8.10;99.90
16736;DHT22;17990;49.548;9.730;2024-03-29T05:55:15;8.10;99.90
16736;DHT22;17990;49.548;9.730;2024-03-29T05:57:43;8.10;99.90
16736;DHT22;17990;49.548;9.730;2024-03-29T06:00:12;8.20;99.90
16736;DHT22;17990;49.548;9.730;2024-03-29T06:02:41;8.20;99.90
16736;DHT22;17990;49.548;9.730;2024-03-29T06:05:09;8.20;99.90
16736;DHT22;17990;49.548;9.730;2024-03-29T06:07:37;8.30;99.90
16736;DHT22;17990;49.548;9.730;2024-03-29T06:10:04;8.40;99.90
16736;DHT22;17990;49.548;9.730;2024-03-29T06:12:34;8.50;99.90
16736;DHT22;17990;49.548;9.730;2024-03-29T06:15:01;8.60;99.90
16736;DHT22;17990;49.548;9.730;2024-03-29T06:17:45;8.70;99.90
16736;DHT22;17990;49.548;9.730;2024-03-29T06:20:14;8.70;99.90
16736;DHT22;17990;49.548;9.730;2024-03-29T06:22:41;8.80;99.90
16736;DHT22;17990;49.548;9.730;2024-03-29T06:25:08;8.80;99.90
16736;DHT22;17990;49.548;9.730;2024-03-29T06:27:36;8.80;99.90
16736;DHT22;17990;49.548;9.730;2024-03-29T06:30:04;8.90;99.90
16736;DHT22;17990;49.548;9.730;2024-03-29T06:32:33;9.00;99.90
16736;DHT22;17990;49.548;9.730;2024-03-29T06:35:00;9.10;99.90
16736;DHT22;17990;49.548;9.730;2024-03-29T06:37:29;9.10;99.90
16736;DHT22;17990;49.548;9.730;2024-03-29T06:39:56;9.20;99.90
16736;DHT22;17990;49.548;9.730;2024-03-29T06:42:23;9.30;99.90
16736;DHT22;17990;49.548;9.730;2024-03-29T06:44:50;9.30;99.90
16736;DHT22;17990;49.548;9.730;2024-03-29T06:47:17;9.30;99.90
16736;DHT22;17990;49.548;9.730;2024-03-29T06:49:44;9.40;99.90
16736;DHT22;17990;49.548;9.730;2024-03-29T06:52:12;9.50;99.90
16736;DHT22;17990;49.548;9.730;2024-03-29T06:54:40;9.60;99.90
16736;DHT22;17990;49.548;9.730;2024-03-29T06:57:07;9.60;99.90
16736;DHT22;17990;49.548;9.730;2024-03-29T06:59:35;9.60;99.90
16736;DHT22;17990;49.548;9.730;2024-03-29T07:02:02;9.70;99.90
16736;DHT22;17990;49.548;9.730;2024-03-29T07:04:29;9.80;99.90
16736;DHT22;17990;49.548;9.730;2024-03-29T07:06:56;9.80;99.90
16736;DHT22;17990;49.548;9.730;2024-03-29T07:09:23;10.00;99.90
16736;DHT22;17990;49.548;9.730;2024-03-29T07:11:52;10.00;99.90
16736;DHT22;17990;49.548;9.730;2024-03-29T07:14:20;10.10;99.90
16736;DHT22;17990;49.548;9.730;2024-03-29T07:16:48;10.30;99.90
16736;DHT22;17990;49.548;9.730;2024-03-29T07:19:15;10.50;99.90
16736;DHT22;17990;49.548;9.730;2024-03-29T07:21:44;10.70;99.90
16736;DHT22;17990;49.548;9.730;2024-03-29T07:24:11;10.80;99.90
16736;DHT22;17990;49.548;9.730;2024-03-29T07:26:38;10.90;99.90
16736;DHT22;17990;49.548;9.730;2024-03-29T07:29:06;11.00;99.90
16736;DHT22;17990;49.548;9.730;2024-03-29T07:31:33;11.10;99.90
16736;DHT22;17990;49.548;9.730;2024-03-29T07:34:00;11.20;99.90
16736;DHT22;17990;49.548;9.730;2024-03-29T07:36:27;11.30;99.90
16736;DHT22;17990;49.548;9.730;2024-03-29T07:39:00;11.50;99.90
16736;DHT22;17990;49.548;9.730;2024-03-29T07:41:27;11.70;99.90
16736;DHT22;17990;49.548;9.730;2024-03-29T07:43:55;11.90;99.90
16736;DHT22;17990;49.548;9.730;2024-03-29T07:46:27;12.00;99.90
16736;DHT22;17990;49.548;9.730;2024-03-29T07:48:55;12.20;99.90
16736;DHT22;17990;49.548;9.730;2024-03-29T07:51:21;12.30;99.90
16736;DHT22;17990;49.548;9.730;2024-03-29T07:53:48;12.30;99.90
16736;DHT22;17990;49.548;9.730;2024-03-29T07:56:15;12.30;99.90
16736;DHT22;17990;49.548;9.730;2024-03-29T07:58:42;12.20;99.90
16736;DHT22;17990;49.548;9.730;2024-03-29T08:01:09;12.20;99.90
16736;DHT22;17990;49.548;9.730;2024-03-29T08:03:37;12.10;99.90
16736;DHT22;17990;49.548;9.730;2024-03-29T08:06:04;12.10;99.90
16736;DHT22;17990;49.548;9.730;2024-03-29T08:08:32;12.00;99.90
16736;DHT22;17990;49.548;9.730;2024-03-29T08:10:59;12.00;99.90
16736;DHT22;17990;49.548;9.730;2024-03-29T08:13:26;12.00;99.90
16736;DHT22;17990;49.548;9.730;2024-03-29T08:15:57;11.90;99.90
16736;DHT22;17990;49.548;9.730;2024-03-29T08:18:25;11.90;99.90
16736;DHT22;17990;49.548;9.730;2024-03-29T08:20:53;11.90;99.90
16736;DHT22;17990;49.548;9.730;2024-03-29T08:23:21;11.90;99.90
16736;DHT22;17990;49.548;9.730;2024-03-29T08:25:48;12.00;99.90
16736;DHT22;17990;49.548;9.730;2024-03-29T08:28:17;12.00;99.90
16736;DHT22;17990;49.548;9.730;2024-03-29T08:30:44;11.90;99.90
16736;DHT22;17990;49.548;9.730;2024-03-29T08:33:11;12.00;99.90
16736;DHT22;17990;49.548;9.730;2024-03-29T08:35:38;11.90;99.90
16736;DHT22;17990;49.548;9.730;2024-03-29T08:38:10;11.90;99.90
16736;DHT22;17990;49.548;9.730;2024-03-29T08:40:38;11.80;99.90
16736;DHT22;17990;49.548;9.730;2024-03-29T08:43:07;11.80;99.90
16736;DHT22;17990;49.548;9.730;2024-03-29T08:45:34;11.70;99.90
16736;DHT22;17990;49.548;9.730;2024-03-29T08:48:07;11.70;99.90
16736;DHT22;17990;49.548;9.730;2024-03-29T08:50:35;11.70;99.90
16736;DHT22;17990;49.548;9.730;2024-03-29T08:53:02;11.60;99.90
16736;DHT22;17990;49.548;9.730;2024-03-29T08:55:30;11.50;99.90
16736;DHT22;17990;49.548;9.730;2024-03-29T08:57:57;11.40;99.90
16736;DHT22;17990;49.548;9.730;2024-03-29T09:00:25;11.40;99.90
16736;DHT22;17990;49.548;9.730;2024-03-29T09:02:51;11.30;99.90
16736;DHT22;17990;49.548;9.730;2024-03-29T09:05:18;11.10;99.90
16736;DHT22;17990;49.548;9.730;2024-03-29T09:07:45;11.10;99.90
16736;DHT22;17990;49.548;9.730;2024-03-29T09:10:14;11.00;99.90
16736;DHT22;17990;49.548;9.730;2024-03-29T09:12:42;11.00;99.90
16736;DHT22;17990;49.548;9.730;2024-03-29T09:15:09;10.90;99.90
16736;DHT22;17990;49.548;9.730;2024-03-29T09:17:39;10.90;99.90
16736;DHT22;17990;49.548;9.730;2024-03-29T09:20:06;10.90;99.90
16736;DHT22;17990;49.548;9.730;2024-03-29T09:22:34;11.00;99.90
16736;DHT22;17990;49.548;9.730;2024-03-29T09:25:03;10.90;99.90
16736;DHT22;17990;49.548;9.730;2024-03-29T09:27:30;11.00;99.90
16736;DHT22;17990;49.548;9.730;2024-03-29T09:30:00;11.00;99.90
16736;DHT22;17990;49.548;9.730;2024-03-29T09:32:28;11.00;99.90
16736;DHT22;17990;49.548;9.730;2024-03-29T09:34:54;10.80;99.90
16736;DHT22;17990;49.548;9.730;2024-03-29T09:37:21;10.60;99.90
16736;DHT22;17990;49.548;9.730;2024-03-29T09:39:49;10.70;99.90
16736;DHT22;17990;49.548;9.730;2024-03-29T09:42:16;10.70;99.90
16736;DHT22;17990;49.548;9.730;2024-03-29T09:44:45;10.70;99.90
16736;DHT22;17990;49.548;9.730;2024-03-29T09:47:15;10.60;99.90
16736;DHT22;17990;49.548;9.730;2024-03-29T09:49:44;10.70;99.90
16736;DHT22;17990;49.548;9.730;2024-03-29T09:52:13;10.80;99.90
16736;DHT22;17990;49.548;9.730;2024-03-29T09:54:40;10.90;99.90
16736;DHT22;17990;49.548;9.730;2024-03-29T09:57:07;11.10;99.90
16736;DHT22;17990;49.548;9.730;2024-03-29T09:59:34;11.40;99.90
16736;DHT22;17990;49.548;9.730;2024-03-29T10:02:01;11.70;99.90
16736;DHT22;17990;49.548;9.730;2024-03-29T10:04:36;11.90;99.90
16736;DHT22;17990;49.548;9.730;2024-03-29T10:07:04;11.70;99.90
16736;DHT22;17990;49.548;9.730;2024-03-29T10:09:31;11.70;99.90
16736;DHT22;17990;49.548;9.730;2024-03-29T10:11:59;12.10;99.90
16736;DHT22;17990;49.548;9.730;2024-03-29T10:14:25;12.50;99.90
16736;DHT22;17990;49.548;9.730;2024-03-29T10:16:53;13.20;99.90
16736;DHT22;17990;49.548;9.730;2024-03-29T10:19:23;13.70;99.90
16736;DHT22;17990;49.548;9.730;2024-03-29T10:22:13;13.50;99.90
16736;DHT22;17990;49.548;9.730;2024-03-29T10:24:42;13.50;99.90
16736;DHT22;17990;49.548;9.730;2024-03-29T10:27:09;13.60;99.90
16736;DHT22;17990;49.548;9.730;2024-03-29T10:29:35;13.80;99.90
16736;DHT22;17990;49.548;9.730;2024-03-29T10:32:02;13.80;99.90
16736;DHT22;17990;49.548;9.730;2024-03-29T10:34:30;14.10;99.90
16736;DHT22;17990;49.548;9.730;2024-03-29T10:37:00;14.40;99.90
16736;DHT22;17990;49.548;9.730;2024-03-29T10:39:30;14.70;99.90
16736;DHT22;17990;49.548;9.730;2024-03-29T10:41:59;15.00;99.90
16736;DHT22;17990;49.548;9.730;2024-03-29T10:44:28;14.70;99.90
16736;DHT22;17990;49.548;9.730;2024-03-29T10:46:56;14.60;99.90
16736;DHT22;17990;49.548;9.730;2024-03-29T10:49:24;14.50;99.90
16736;DHT22;17990;49.548;9.730;2024-03-29T10:51:53;14.30;99.90
16736;DHT22;17990;49.548;9.730;2024-03-29T10:54:22;14.10;99.90
16736;DHT22;17990;49.548;9.730;2024-03-29T10:56:58;14.30;99.90
16736;DHT22;17990;49.548;9.730;2024-03-29T10:59:34;14.20;99.90
16736;DHT22;17990;49.548;9.730;2024-03-29T11:02:11;14.10;99.90
16736;DHT22;17990;49.548;9.730;2024-03-29T11:04:39;14.20;99.90
16736;DHT22;17990;49.548;9.730;2024-03-29T11:07:14;14.20;99.90
16736;DHT22;17990;49.548;9.730;2024-03-29T11:09:46;14.20;99.90
16736;DHT22;17990;49.548;9.730;2024-03-29T11:12:20;14.10;99.90
16736;DHT22;17990;49.548;9.730;2024-03-29T11:14:54;14.00;99.90
16736;DHT22;17990;49.548;9.730;2024-03-29T11:17:25;13.80;99.90
16736;DHT22;17990;49.548;9.730;2024-03-29T11:19:52;13.60;99.90
16736;DHT22;17990;49.548;9.730;2024-03-29T11:22:20;13.50;99.90
16736;DHT22;17990;49.548;9.730;2024-03-29T11:24:46;13.50;99.90
16736;DHT22;17990;49.548;9.730;2024-03-29T11:27:16;13.60;99.90
16736;DHT22;17990;49.548;9.730;2024-03-29T11:29:45;13.90;99.90
16736;DHT22;17990;49.548;9.730;2024-03-29T11:32:14;14.00;99.90
16736;DHT22;17990;49.548;9.730;2024-03-29T11:34:44;14.20;99.90
16736;DHT22;17990;49.548;9.730;2024-03-29T11:37:12;14.40;99.90
16736;DHT22;17990;49.548;9.730;2024-03-29T11:39:39;14.60;99.90
16736;DHT22;17990;49.548;9.730;2024-03-29T11:42:07;14.90;99.90
16736;DHT22;17990;49.548;9.730;2024-03-29T11:44:35;15.10;99.90
16736;DHT22;17990;49.548;9.730;2024-03-29T11:47:04;15.30;99.90
16736;DHT22;17990;49.548;9.730;2024-03-29T11:49:33;15.60;99.90
16736;DHT22;17990;49.548;9.730;2024-03-29T11:52:04;16.10;99.90
16736;DHT22;17990;49.548;9.730;2024-03-29T11:54:38;16.40;99.90
16736;DHT22;17990;49.548;9.730;2024-03-29T11:57:05;16.50;99.90
16736;DHT22;17990;49.548;9.730;2024-03-29T11:59:32;16.10;99.90
16736;DHT22;17990;49.548;9.730;2024-03-29T12:02:00;16.10;99.90
16736;DHT22;17990;49.548;9.730;2024-03-29T12:04:28;16.30;99.90
16736;DHT22;17990;49.548;9.730;2024-03-29T12:06:55;16.40;99.90
16736;DHT22;17990;49.548;9.730;2024-03-29T12:09:22;16.60;99.90
16736;DHT22;17990;49.548;9.730;2024-03-29T12:11:49;16.80;99.90
16736;DHT22;17990;49.548;9.730;2024-03-29T12:14:16;16.90;99.90
16736;DHT22;17990;49.548;9.730;2024-03-29T12:16:44;16.90;99.90
16736;DHT22;17990;49.548;9.730;2024-03-29T12:19:23;16.70;99.90
16736;DHT22;17990;49.548;9.730;2024-03-29T12:21:50;16.70;99.90
16736;DHT22;17990;49.548;9.730;2024-03-29T12:24:18;16.40;99.90
16736;DHT22;17990;49.548;9.730;2024-03-29T12:26:45;16.20;99.90
16736;DHT22;17990;49.548;9.730;2024-03-29T12:29:11;15.80;99.90
16736;DHT22;17990;49.548;9.730;2024-03-29T12:31:39;15.30;99.90
16736;DHT22;17990;49.548;9.730;2024-03-29T12:34:06;15.10;99.90
16736;DHT22;17990;49.548;9.730;2024-03-29T12:36:35;14.90;99.90
16736;DHT22;17990;49.548;9.730;2024-03-29T12:39:02;14.80;99.90
16736;DHT22;17990;49.548;9.730;2024-03-29T12:41:31;14.70;99.90
16736;DHT22;17990;49.548;9.730;2024-03-29T12:44:00;14.70;99.90
16736;DHT22;17990;49.548;9.730;2024-03-29T12:46:27;14.60;99.90
16736;DHT22;17990;49.548;9.730;2024-03-29T12:48:57;14.60;99.90
16736;DHT22;17990;49.548;9.730;2024-03-29T12:51:26;14.70;99.90
16736;DHT22;17990;49.548;9.730;2024-03-29T12:53:54;14.70;99.90
16736;DHT22;17990;49.548;9.730;2024-03-29T12:56:25;14.70;99.90
16736;DHT22;17990;49.548;9.730;2024-03-29T12:58:52;14.60;99.90
16736;DHT22;17990;49.548;9.730;2024-03-29T13:01:20;14.50;99.90
16736;DHT22;17990;49.548;9.730;2024-03-29T13:03:47;14.50;99.90
16736;DHT22;17990;49.548;9.730;2024-03-29T13:06:14;14.60;99.90
16736;DHT22;17990;49.548;9.730;2024-03-29T13:08:41;14.60;99.90
16736;DHT22;17990;49.548;9.730;2024-03-29T13:11:09;14.60;99.90
16736;DHT22;17990;49.548;9.730;2024-03-29T13:13:36;14.70;99.90
16736;DHT22;17990;49.548;9.730;2024-03-29T13:16:03;14.80;99.90
16736;DHT22;17990;49.548;9.730;2024-03-29T13:18:30;14.90;99.90
16736;DHT22;17990;49.548;9.730;2024-03-29T13:20:57;14.70;99.90
16736;DHT22;17990;49.548;9.730;2024-03-29T13:23:27;14.70;99.90
16736;DHT22;17990;49.548;9.730;2024-03-29T13:25:54;14.80;99.90
16736;DHT22;17990;49.548;9.730;2024-03-29T13:28:24;15.00;99.90
16736;DHT22;17990;49.548;9.730;2024-03-29T13:30:51;15.10;99.90
16736;DHT22;17990;49.548;9.730;2024-03-29T13:33:18;15.20;99.90
16736;DHT22;17990;49.548;9.730;2024-03-29T13:35:45;15.30;99.90
16736;DHT22;17990;49.548;9.730;2024-03-29T13:38:12;15.30;99.90
16736;DHT22;17990;49.548;9.730;2024-03-29T13:40:39;15.20;99.90
16736;DHT22;17990;49.548;9.730;2024-03-29T13:43:06;15.00;99.90
16736;DHT22;17990;49.548;9.730;2024-03-29T13:45:34;15.00;99.90
16736;DHT22;17990;49.548;9.730;2024-03-29T13:48:01;14.90;99.90
16736;DHT22;17990;49.548;9.730;2024-03-29T13:50:28;14.80;99.90
16736;DHT22;17990;49.548;9.730;2024-03-29T13:52:55;14.70;99.90
16736;DHT22;17990;49.548;9.730;2024-03-29T13:55:22;14.50;99.90
16736;DHT22;17990;49.548;9.730;2024-03-29T13:57:51;14.40;99.90
16736;DHT22;17990;49.548;9.730;2024-03-29T14:00:18;14.60;99.90
16736;DHT22;17990;49.548;9.730;2024-03-29T14:02:47;14.60;99.90
16736;DHT22;17990;49.548;9.730;2024-03-29T14:05:14;14.60;99.90
16736;DHT22;17990;49.548;9.730;2024-03-29T14:07:41;14.80;99.90
16736;DHT22;17990;49.548;9.730;2024-03-29T14:10:09;14.80;99.90
16736;DHT22;17990;49.548;9.730;2024-03-29T14:12:36;14.80;99.90
16736;DHT22;17990;49.548;9.730;2024-03-29T14:15:04;14.90;99.90
16736;DHT22;17990;49.548;9.730;2024-03-29T14:17:33;15.00;99.90
16736;DHT22;17990;49.548;9.730;2024-03-29T14:20:01;15.00;99.90
16736;DHT22;17990;49.548;9.730;2024-03-29T14:22:28;14.80;99.90
16736;DHT22;17990;49.548;9.730;2024-03-29T14:24:59;14.60;99.90
16736;DHT22;17990;49.548;9.730;2024-03-29T14:27:25;14.50;99.90
16736;DHT22;17990;49.548;9.730;2024-03-29T14:29:52;14.60;99.90
16736;DHT22;17990;49.548;9.730;2024-03-29T14:32:21;14.90;99.90
16736;DHT22;17990;49.548;9.730;2024-03-29T14:34:48;15.40;99.90
16736;DHT22;17990;49.548;9.730;2024-03-29T14:37:16;16.00;99.90
16736;DHT22;17990;49.548;9.730;2024-03-29T14:39:43;16.60;99.90
16736;DHT22;17990;49.548;9.730;2024-03-29T14:42:11;16.80;99.90
16736;DHT22;17990;49.548;9.730;2024-03-29T14:44:47;16.90;99.90
16736;DHT22;17990;49.548;9.730;2024-03-29T14:47:14;16.50;99.90
16736;DHT22;17990;49.548;9.730;2024-03-29T14:49:42;16.40;99.90
16736;DHT22;17990;49.548;9.730;2024-03-29T14:52:09;16.50;99.90
16736;DHT22;17990;49.548;9.730;2024-03-29T14:54:38;16.10;99.90
16736;DHT22;17990;49.548;9.730;2024-03-29T14:57:05;15.90;99.90
16736;DHT22;17990;49.548;9.730;2024-03-29T14:59:32;15.90;99.90
16736;DHT22;17990;49.548;9.730;2024-03-29T15:02:00;16.00;99.90
16736;DHT22;17990;49.548;9.730;2024-03-29T15:04:27;16.00;99.90
16736;DHT22;17990;49.548;9.730;2024-03-29T15:06:53;16.10;99.90
16736;DHT22;17990;49.548;9.730;2024-03-29T15:09:20;16.20;99.90
16736;DHT22;17990;49.548;9.730;2024-03-29T15:11:48;16.40;99.90
16736;DHT22;17990;49.548;9.730;2024-03-29T15:14:15;16.40;99.90
16736;DHT22;17990;49.548;9.730;2024-03-29T15:16:42;16.20;99.90
16736;DHT22;17990;49.548;9.730;2024-03-29T15:19:09;16.10;99.90
16736;DHT22;17990;49.548;9.730;2024-03-29T15:21:36;16.10;99.90
16736;DHT22;17990;49.548;9.730;2024-03-29T15:24:05;15.90;99.90
16736;DHT22;17990;49.548;9.730;2024-03-29T15:26:33;15.90;99.90
16736;DHT22;17990;49.548;9.730;2024-03-29T15:29:03;15.90;99.90
16736;DHT22;17990;49.548;9.730;2024-03-29T15:31:33;15.80;99.90
16736;DHT22;17990;49.548;9.730;2024-03-29T15:34:01;15.80;99.90
16736;DHT22;17990;49.548;9.730;2024-03-29T15:36:29;15.70;99.90
16736;DHT22;17990;49.548;9.730;2024-03-29T15:38:56;15.60;99.90
16736;DHT22;17990;49.548;9.730;2024-03-29T15:41:29;15.50;99.90